<?xml version="1.0" encoding="UTF-8" standalone="no" ?>
<gpx xmlns="http://www.topografix.com/GPX/1/1" xmlns:xsi="http://www.w3.org/2001/XMLSchema-instance" xsi:schemaLocation="http://www.topografix.com/GPX/1/1 http://www.topografix.com/GPX/1/1/gpx.xsd" version="1.1" creator="VisuGPX - https://www.visugpx.com">
  <metadata>
    <name>Mont Charvet, combe ouest, depuyis la Bombardellaz</name>
    <desc><![CDATA[La randonnée décrite se fait au départ des Confins ou des Troncs, la trace GPS a donc été enregistrée à partir d'un point accessible des 2 départs]]></desc>
  </metadata>
  <trk>
    <name><![CDATA[28 avr. 2016]]></name>
    <cmt><![CDATA[10:34:11]]></cmt>
    <desc><![CDATA[M'ont Charvet]]></desc>
    <trkseg>
      <trkpt lat="45.93697" lon="6.51684">
        <ele>1780</ele>
        <time>2016-04-28T08:34:11Z</time>
      </trkpt>
      <trkpt lat="45.93697" lon="6.51684">
        <ele>1780</ele>
        <time>2016-04-28T08:34:12Z</time>
      </trkpt>
      <trkpt lat="45.93697" lon="6.51686">
        <ele>1781</ele>
        <time>2016-04-28T08:34:36Z</time>
      </trkpt>
      <trkpt lat="45.937" lon="6.51692">
        <ele>1780</ele>
        <time>2016-04-28T08:34:41Z</time>
      </trkpt>
      <trkpt lat="45.93699" lon="6.51694">
        <ele>1779</ele>
        <time>2016-04-28T08:34:44Z</time>
      </trkpt>
      <trkpt lat="45.93698" lon="6.51696">
        <ele>1779</ele>
        <time>2016-04-28T08:34:46Z</time>
      </trkpt>
      <trkpt lat="45.93698" lon="6.51702">
        <ele>1779</ele>
        <time>2016-04-28T08:34:50Z</time>
      </trkpt>
      <trkpt lat="45.937" lon="6.51704">
        <ele>1779</ele>
        <time>2016-04-28T08:34:51Z</time>
      </trkpt>
      <trkpt lat="45.93701" lon="6.51707">
        <ele>1778</ele>
        <time>2016-04-28T08:34:52Z</time>
      </trkpt>
      <trkpt lat="45.93704" lon="6.51712">
        <ele>1778</ele>
        <time>2016-04-28T08:34:55Z</time>
      </trkpt>
      <trkpt lat="45.93713" lon="6.5172">
        <ele>1774</ele>
        <time>2016-04-28T08:35:05Z</time>
      </trkpt>
      <trkpt lat="45.93713" lon="6.51725">
        <ele>1774</ele>
        <time>2016-04-28T08:35:07Z</time>
      </trkpt>
      <trkpt lat="45.93714" lon="6.51727">
        <ele>1774</ele>
        <time>2016-04-28T08:35:09Z</time>
      </trkpt>
      <trkpt lat="45.93714" lon="6.51731">
        <ele>1772</ele>
        <time>2016-04-28T08:35:12Z</time>
      </trkpt>
      <trkpt lat="45.93717" lon="6.51733">
        <ele>1772</ele>
        <time>2016-04-28T08:35:15Z</time>
      </trkpt>
      <trkpt lat="45.93719" lon="6.51732">
        <ele>1772</ele>
        <time>2016-04-28T08:35:17Z</time>
      </trkpt>
      <trkpt lat="45.9372" lon="6.51735">
        <ele>1771</ele>
        <time>2016-04-28T08:35:19Z</time>
      </trkpt>
      <trkpt lat="45.93723" lon="6.51746">
        <ele>1773</ele>
        <time>2016-04-28T08:35:28Z</time>
      </trkpt>
      <trkpt lat="45.93725" lon="6.51746">
        <ele>1773</ele>
        <time>2016-04-28T08:35:30Z</time>
      </trkpt>
      <trkpt lat="45.93726" lon="6.51748">
        <ele>1773</ele>
        <time>2016-04-28T08:35:33Z</time>
      </trkpt>
      <trkpt lat="45.93726" lon="6.51751">
        <ele>1772</ele>
        <time>2016-04-28T08:35:35Z</time>
      </trkpt>
      <trkpt lat="45.93727" lon="6.51753">
        <ele>1771</ele>
        <time>2016-04-28T08:35:37Z</time>
      </trkpt>
      <trkpt lat="45.9373" lon="6.51754">
        <ele>1771</ele>
        <time>2016-04-28T08:35:39Z</time>
      </trkpt>
      <trkpt lat="45.93731" lon="6.51762">
        <ele>1769</ele>
        <time>2016-04-28T08:35:45Z</time>
      </trkpt>
      <trkpt lat="45.93753" lon="6.5179">
        <ele>1772</ele>
        <time>2016-04-28T08:36:16Z</time>
      </trkpt>
      <trkpt lat="45.93758" lon="6.51794">
        <ele>1775</ele>
        <time>2016-04-28T08:36:20Z</time>
      </trkpt>
      <trkpt lat="45.93761" lon="6.51798">
        <ele>1776</ele>
        <time>2016-04-28T08:36:25Z</time>
      </trkpt>
      <trkpt lat="45.93765" lon="6.51806">
        <ele>1779</ele>
        <time>2016-04-28T08:36:36Z</time>
      </trkpt>
      <trkpt lat="45.93765" lon="6.51809">
        <ele>1780</ele>
        <time>2016-04-28T08:36:39Z</time>
      </trkpt>
      <trkpt lat="45.93768" lon="6.5181">
        <ele>1780</ele>
        <time>2016-04-28T08:36:44Z</time>
      </trkpt>
      <trkpt lat="45.93777" lon="6.51825">
        <ele>1784</ele>
        <time>2016-04-28T08:37:04Z</time>
      </trkpt>
      <trkpt lat="45.93779" lon="6.51831">
        <ele>1781</ele>
        <time>2016-04-28T08:37:35Z</time>
      </trkpt>
      <trkpt lat="45.93781" lon="6.51833">
        <ele>1781</ele>
        <time>2016-04-28T08:39:38Z</time>
      </trkpt>
      <trkpt lat="45.93782" lon="6.51834">
        <ele>1781</ele>
        <time>2016-04-28T08:39:42Z</time>
      </trkpt>
      <trkpt lat="45.93782" lon="6.51838">
        <ele>1781</ele>
        <time>2016-04-28T08:39:44Z</time>
      </trkpt>
      <trkpt lat="45.93789" lon="6.51912">
        <ele>1776</ele>
        <time>2016-04-28T08:40:15Z</time>
      </trkpt>
      <trkpt lat="45.93794" lon="6.51954">
        <ele>1778</ele>
        <time>2016-04-28T08:40:28Z</time>
      </trkpt>
      <trkpt lat="45.93796" lon="6.51955">
        <ele>1778</ele>
        <time>2016-04-28T08:40:32Z</time>
      </trkpt>
      <trkpt lat="45.93797" lon="6.51957">
        <ele>1777</ele>
        <time>2016-04-28T08:40:34Z</time>
      </trkpt>
      <trkpt lat="45.938" lon="6.5196">
        <ele>1777</ele>
        <time>2016-04-28T08:40:37Z</time>
      </trkpt>
      <trkpt lat="45.93826" lon="6.51979">
        <ele>1771</ele>
        <time>2016-04-28T08:41:08Z</time>
      </trkpt>
      <trkpt lat="45.93851" lon="6.5199">
        <ele>1775</ele>
        <time>2016-04-28T08:41:39Z</time>
      </trkpt>
      <trkpt lat="45.93876" lon="6.52004">
        <ele>1778</ele>
        <time>2016-04-28T08:42:09Z</time>
      </trkpt>
      <trkpt lat="45.93887" lon="6.52007">
        <ele>1778</ele>
        <time>2016-04-28T08:42:17Z</time>
      </trkpt>
      <trkpt lat="45.93905" lon="6.52022">
        <ele>1775</ele>
        <time>2016-04-28T08:42:58Z</time>
      </trkpt>
      <trkpt lat="45.93906" lon="6.52025">
        <ele>1774</ele>
        <time>2016-04-28T08:43:10Z</time>
      </trkpt>
      <trkpt lat="45.93924" lon="6.52035">
        <ele>1776</ele>
        <time>2016-04-28T08:43:31Z</time>
      </trkpt>
      <trkpt lat="45.93926" lon="6.52038">
        <ele>1775</ele>
        <time>2016-04-28T08:43:36Z</time>
      </trkpt>
      <trkpt lat="45.93927" lon="6.52043">
        <ele>1774</ele>
        <time>2016-04-28T08:43:42Z</time>
      </trkpt>
      <trkpt lat="45.93936" lon="6.5205">
        <ele>1776</ele>
        <time>2016-04-28T08:43:49Z</time>
      </trkpt>
      <trkpt lat="45.93944" lon="6.52067">
        <ele>1777</ele>
        <time>2016-04-28T08:44:19Z</time>
      </trkpt>
      <trkpt lat="45.93947" lon="6.52073">
        <ele>1779</ele>
        <time>2016-04-28T08:44:25Z</time>
      </trkpt>
      <trkpt lat="45.93948" lon="6.52077">
        <ele>1778</ele>
        <time>2016-04-28T08:44:28Z</time>
      </trkpt>
      <trkpt lat="45.9395" lon="6.52079">
        <ele>1778</ele>
        <time>2016-04-28T08:44:29Z</time>
      </trkpt>
      <trkpt lat="45.9395" lon="6.52082">
        <ele>1778</ele>
        <time>2016-04-28T08:44:33Z</time>
      </trkpt>
      <trkpt lat="45.93952" lon="6.52084">
        <ele>1775</ele>
        <time>2016-04-28T08:44:35Z</time>
      </trkpt>
      <trkpt lat="45.93958" lon="6.521">
        <ele>1774</ele>
        <time>2016-04-28T08:44:55Z</time>
      </trkpt>
      <trkpt lat="45.93961" lon="6.52101">
        <ele>1776</ele>
        <time>2016-04-28T08:44:58Z</time>
      </trkpt>
      <trkpt lat="45.93965" lon="6.5211">
        <ele>1779</ele>
        <time>2016-04-28T08:45:11Z</time>
      </trkpt>
      <trkpt lat="45.93968" lon="6.52112">
        <ele>1780</ele>
        <time>2016-04-28T08:45:14Z</time>
      </trkpt>
      <trkpt lat="45.9397" lon="6.52113">
        <ele>1780</ele>
        <time>2016-04-28T08:45:18Z</time>
      </trkpt>
      <trkpt lat="45.9397" lon="6.52116">
        <ele>1782</ele>
        <time>2016-04-28T08:48:52Z</time>
      </trkpt>
      <trkpt lat="45.93973" lon="6.52123">
        <ele>1781</ele>
        <time>2016-04-28T08:49:06Z</time>
      </trkpt>
      <trkpt lat="45.93972" lon="6.52125">
        <ele>1780</ele>
        <time>2016-04-28T08:49:08Z</time>
      </trkpt>
      <trkpt lat="45.93976" lon="6.52129">
        <ele>1781</ele>
        <time>2016-04-28T08:49:14Z</time>
      </trkpt>
      <trkpt lat="45.93979" lon="6.52148">
        <ele>1781</ele>
        <time>2016-04-28T08:49:41Z</time>
      </trkpt>
      <trkpt lat="45.93981" lon="6.52153">
        <ele>1783</ele>
        <time>2016-04-28T08:49:49Z</time>
      </trkpt>
      <trkpt lat="45.93982" lon="6.52159">
        <ele>1789</ele>
        <time>2016-04-28T08:49:57Z</time>
      </trkpt>
      <trkpt lat="45.93984" lon="6.52161">
        <ele>1789</ele>
        <time>2016-04-28T08:50:00Z</time>
      </trkpt>
      <trkpt lat="45.93988" lon="6.52169">
        <ele>1790</ele>
        <time>2016-04-28T08:50:13Z</time>
      </trkpt>
      <trkpt lat="45.9399" lon="6.52172">
        <ele>1793</ele>
        <time>2016-04-28T08:50:17Z</time>
      </trkpt>
      <trkpt lat="45.93991" lon="6.52184">
        <ele>1795</ele>
        <time>2016-04-28T08:50:33Z</time>
      </trkpt>
      <trkpt lat="45.93994" lon="6.52185">
        <ele>1795</ele>
        <time>2016-04-28T08:50:36Z</time>
      </trkpt>
      <trkpt lat="45.93995" lon="6.52193">
        <ele>1795</ele>
        <time>2016-04-28T08:50:44Z</time>
      </trkpt>
      <trkpt lat="45.94" lon="6.52216">
        <ele>1798</ele>
        <time>2016-04-28T08:51:16Z</time>
      </trkpt>
      <trkpt lat="45.94005" lon="6.52221">
        <ele>1797</ele>
        <time>2016-04-28T08:51:24Z</time>
      </trkpt>
      <trkpt lat="45.94005" lon="6.52224">
        <ele>1799</ele>
        <time>2016-04-28T08:51:32Z</time>
      </trkpt>
      <trkpt lat="45.94006" lon="6.52231">
        <ele>1802</ele>
        <time>2016-04-28T08:51:40Z</time>
      </trkpt>
      <trkpt lat="45.9401" lon="6.52236">
        <ele>1803</ele>
        <time>2016-04-28T08:51:53Z</time>
      </trkpt>
      <trkpt lat="45.9401" lon="6.5224">
        <ele>1803</ele>
        <time>2016-04-28T08:51:55Z</time>
      </trkpt>
      <trkpt lat="45.94013" lon="6.52243">
        <ele>1804</ele>
        <time>2016-04-28T08:51:58Z</time>
      </trkpt>
      <trkpt lat="45.94014" lon="6.52249">
        <ele>1806</ele>
        <time>2016-04-28T08:52:03Z</time>
      </trkpt>
      <trkpt lat="45.94019" lon="6.5226">
        <ele>1809</ele>
        <time>2016-04-28T08:52:19Z</time>
      </trkpt>
      <trkpt lat="45.94018" lon="6.52262">
        <ele>1809</ele>
        <time>2016-04-28T08:52:21Z</time>
      </trkpt>
      <trkpt lat="45.94018" lon="6.52265">
        <ele>1809</ele>
        <time>2016-04-28T08:52:23Z</time>
      </trkpt>
      <trkpt lat="45.9402" lon="6.52267">
        <ele>1810</ele>
        <time>2016-04-28T08:52:26Z</time>
      </trkpt>
      <trkpt lat="45.94021" lon="6.5227">
        <ele>1810</ele>
        <time>2016-04-28T08:52:29Z</time>
      </trkpt>
      <trkpt lat="45.94021" lon="6.52273">
        <ele>1813</ele>
        <time>2016-04-28T08:52:33Z</time>
      </trkpt>
      <trkpt lat="45.94023" lon="6.52274">
        <ele>1812</ele>
        <time>2016-04-28T08:52:36Z</time>
      </trkpt>
      <trkpt lat="45.94023" lon="6.52277">
        <ele>1812</ele>
        <time>2016-04-28T08:52:38Z</time>
      </trkpt>
      <trkpt lat="45.94025" lon="6.52278">
        <ele>1813</ele>
        <time>2016-04-28T08:52:40Z</time>
      </trkpt>
      <trkpt lat="45.94026" lon="6.5228">
        <ele>1814</ele>
        <time>2016-04-28T08:52:44Z</time>
      </trkpt>
      <trkpt lat="45.94035" lon="6.52288">
        <ele>1817</ele>
        <time>2016-04-28T08:52:59Z</time>
      </trkpt>
      <trkpt lat="45.94042" lon="6.523">
        <ele>1817</ele>
        <time>2016-04-28T08:53:21Z</time>
      </trkpt>
      <trkpt lat="45.94043" lon="6.52304">
        <ele>1817</ele>
        <time>2016-04-28T08:53:27Z</time>
      </trkpt>
      <trkpt lat="45.94046" lon="6.52306">
        <ele>1820</ele>
        <time>2016-04-28T08:53:32Z</time>
      </trkpt>
      <trkpt lat="45.94053" lon="6.52321">
        <ele>1819</ele>
        <time>2016-04-28T08:53:52Z</time>
      </trkpt>
      <trkpt lat="45.94052" lon="6.52325">
        <ele>1823</ele>
        <time>2016-04-28T08:54:03Z</time>
      </trkpt>
      <trkpt lat="45.94049" lon="6.52331">
        <ele>1824</ele>
        <time>2016-04-28T08:54:09Z</time>
      </trkpt>
      <trkpt lat="45.9405" lon="6.52337">
        <ele>1825</ele>
        <time>2016-04-28T08:54:18Z</time>
      </trkpt>
      <trkpt lat="45.94049" lon="6.5234">
        <ele>1825</ele>
        <time>2016-04-28T08:54:23Z</time>
      </trkpt>
      <trkpt lat="45.94049" lon="6.52344">
        <ele>1826</ele>
        <time>2016-04-28T08:54:28Z</time>
      </trkpt>
      <trkpt lat="45.94046" lon="6.52345">
        <ele>1828</ele>
        <time>2016-04-28T08:54:38Z</time>
      </trkpt>
      <trkpt lat="45.94045" lon="6.52345">
        <ele>1829</ele>
        <time>2016-04-28T08:54:41Z</time>
      </trkpt>
      <trkpt lat="45.94043" lon="6.52345">
        <ele>1833</ele>
        <time>2016-04-28T08:54:47Z</time>
      </trkpt>
      <trkpt lat="45.94042" lon="6.52345">
        <ele>1834</ele>
        <time>2016-04-28T08:54:50Z</time>
      </trkpt>
      <trkpt lat="45.9404" lon="6.52346">
        <ele>1835</ele>
        <time>2016-04-28T08:54:53Z</time>
      </trkpt>
      <trkpt lat="45.94038" lon="6.52346">
        <ele>1836</ele>
        <time>2016-04-28T08:54:56Z</time>
      </trkpt>
      <trkpt lat="45.94037" lon="6.52345">
        <ele>1838</ele>
        <time>2016-04-28T08:54:58Z</time>
      </trkpt>
      <trkpt lat="45.94035" lon="6.52346">
        <ele>1839</ele>
        <time>2016-04-28T08:55:04Z</time>
      </trkpt>
      <trkpt lat="45.94034" lon="6.52345">
        <ele>1840</ele>
        <time>2016-04-28T08:55:08Z</time>
      </trkpt>
      <trkpt lat="45.94032" lon="6.52344">
        <ele>1843</ele>
        <time>2016-04-28T08:55:11Z</time>
      </trkpt>
      <trkpt lat="45.9403" lon="6.52344">
        <ele>1844</ele>
        <time>2016-04-28T08:55:14Z</time>
      </trkpt>
      <trkpt lat="45.94025" lon="6.52343">
        <ele>1844</ele>
        <time>2016-04-28T08:55:20Z</time>
      </trkpt>
      <trkpt lat="45.9402" lon="6.52347">
        <ele>1844</ele>
        <time>2016-04-28T08:55:29Z</time>
      </trkpt>
      <trkpt lat="45.94021" lon="6.5235">
        <ele>1843</ele>
        <time>2016-04-28T08:55:31Z</time>
      </trkpt>
      <trkpt lat="45.94022" lon="6.52352">
        <ele>1843</ele>
        <time>2016-04-28T08:55:35Z</time>
      </trkpt>
      <trkpt lat="45.94022" lon="6.52354">
        <ele>1842</ele>
        <time>2016-04-28T08:55:40Z</time>
      </trkpt>
      <trkpt lat="45.9402" lon="6.52356">
        <ele>1842</ele>
        <time>2016-04-28T08:55:42Z</time>
      </trkpt>
      <trkpt lat="45.9402" lon="6.52358">
        <ele>1843</ele>
        <time>2016-04-28T08:55:47Z</time>
      </trkpt>
      <trkpt lat="45.94018" lon="6.52361">
        <ele>1844</ele>
        <time>2016-04-28T08:55:56Z</time>
      </trkpt>
      <trkpt lat="45.94017" lon="6.52364">
        <ele>1845</ele>
        <time>2016-04-28T08:56:00Z</time>
      </trkpt>
      <trkpt lat="45.94015" lon="6.52366">
        <ele>1848</ele>
        <time>2016-04-28T08:56:04Z</time>
      </trkpt>
      <trkpt lat="45.94014" lon="6.52369">
        <ele>1849</ele>
        <time>2016-04-28T08:56:10Z</time>
      </trkpt>
      <trkpt lat="45.94012" lon="6.52372">
        <ele>1850</ele>
        <time>2016-04-28T08:56:14Z</time>
      </trkpt>
      <trkpt lat="45.94009" lon="6.52374">
        <ele>1850</ele>
        <time>2016-04-28T08:56:23Z</time>
      </trkpt>
      <trkpt lat="45.94005" lon="6.52375">
        <ele>1853</ele>
        <time>2016-04-28T08:56:31Z</time>
      </trkpt>
      <trkpt lat="45.94003" lon="6.52378">
        <ele>1854</ele>
        <time>2016-04-28T08:56:39Z</time>
      </trkpt>
      <trkpt lat="45.94001" lon="6.52381">
        <ele>1853</ele>
        <time>2016-04-28T08:56:43Z</time>
      </trkpt>
      <trkpt lat="45.94" lon="6.5238">
        <ele>1858</ele>
        <time>2016-04-28T08:56:53Z</time>
      </trkpt>
      <trkpt lat="45.93999" lon="6.52383">
        <ele>1859</ele>
        <time>2016-04-28T08:56:59Z</time>
      </trkpt>
      <trkpt lat="45.93997" lon="6.52386">
        <ele>1859</ele>
        <time>2016-04-28T08:57:02Z</time>
      </trkpt>
      <trkpt lat="45.93996" lon="6.52386">
        <ele>1860</ele>
        <time>2016-04-28T08:57:04Z</time>
      </trkpt>
      <trkpt lat="45.93996" lon="6.52389">
        <ele>1860</ele>
        <time>2016-04-28T08:57:07Z</time>
      </trkpt>
      <trkpt lat="45.93994" lon="6.52394">
        <ele>1863</ele>
        <time>2016-04-28T08:57:15Z</time>
      </trkpt>
      <trkpt lat="45.93994" lon="6.524">
        <ele>1864</ele>
        <time>2016-04-28T08:57:22Z</time>
      </trkpt>
      <trkpt lat="45.93997" lon="6.52403">
        <ele>1865</ele>
        <time>2016-04-28T08:57:26Z</time>
      </trkpt>
      <trkpt lat="45.93999" lon="6.52414">
        <ele>1865</ele>
        <time>2016-04-28T08:57:42Z</time>
      </trkpt>
      <trkpt lat="45.94001" lon="6.52419">
        <ele>1866</ele>
        <time>2016-04-28T08:57:50Z</time>
      </trkpt>
      <trkpt lat="45.94001" lon="6.52421">
        <ele>1866</ele>
        <time>2016-04-28T08:57:53Z</time>
      </trkpt>
      <trkpt lat="45.94007" lon="6.5243">
        <ele>1864</ele>
        <time>2016-04-28T08:58:04Z</time>
      </trkpt>
      <trkpt lat="45.94008" lon="6.52431">
        <ele>1865</ele>
        <time>2016-04-28T08:58:06Z</time>
      </trkpt>
      <trkpt lat="45.94007" lon="6.52438">
        <ele>1867</ele>
        <time>2016-04-28T08:58:20Z</time>
      </trkpt>
      <trkpt lat="45.94006" lon="6.52441">
        <ele>1871</ele>
        <time>2016-04-28T08:58:26Z</time>
      </trkpt>
      <trkpt lat="45.94006" lon="6.52444">
        <ele>1873</ele>
        <time>2016-04-28T08:58:30Z</time>
      </trkpt>
      <trkpt lat="45.94005" lon="6.52447">
        <ele>1874</ele>
        <time>2016-04-28T08:58:33Z</time>
      </trkpt>
      <trkpt lat="45.94003" lon="6.52453">
        <ele>1875</ele>
        <time>2016-04-28T08:58:41Z</time>
      </trkpt>
      <trkpt lat="45.94002" lon="6.52454">
        <ele>1876</ele>
        <time>2016-04-28T08:58:45Z</time>
      </trkpt>
      <trkpt lat="45.93999" lon="6.52463">
        <ele>1879</ele>
        <time>2016-04-28T08:58:57Z</time>
      </trkpt>
      <trkpt lat="45.93997" lon="6.52466">
        <ele>1879</ele>
        <time>2016-04-28T08:59:01Z</time>
      </trkpt>
      <trkpt lat="45.93996" lon="6.52469">
        <ele>1880</ele>
        <time>2016-04-28T08:59:05Z</time>
      </trkpt>
      <trkpt lat="45.93993" lon="6.52473">
        <ele>1881</ele>
        <time>2016-04-28T08:59:11Z</time>
      </trkpt>
      <trkpt lat="45.93991" lon="6.52475">
        <ele>1882</ele>
        <time>2016-04-28T08:59:15Z</time>
      </trkpt>
      <trkpt lat="45.9399" lon="6.52477">
        <ele>1883</ele>
        <time>2016-04-28T08:59:21Z</time>
      </trkpt>
      <trkpt lat="45.93989" lon="6.52478">
        <ele>1884</ele>
        <time>2016-04-28T08:59:25Z</time>
      </trkpt>
      <trkpt lat="45.93984" lon="6.52479">
        <ele>1885</ele>
        <time>2016-04-28T08:59:33Z</time>
      </trkpt>
      <trkpt lat="45.93967" lon="6.52482">
        <ele>1890</ele>
        <time>2016-04-28T09:00:04Z</time>
      </trkpt>
      <trkpt lat="45.93959" lon="6.52484">
        <ele>1893</ele>
        <time>2016-04-28T09:00:36Z</time>
      </trkpt>
      <trkpt lat="45.93953" lon="6.52482">
        <ele>1894</ele>
        <time>2016-04-28T09:00:44Z</time>
      </trkpt>
      <trkpt lat="45.93949" lon="6.52482">
        <ele>1899</ele>
        <time>2016-04-28T09:00:54Z</time>
      </trkpt>
      <trkpt lat="45.93947" lon="6.52485">
        <ele>1900</ele>
        <time>2016-04-28T09:00:59Z</time>
      </trkpt>
      <trkpt lat="45.93944" lon="6.52486">
        <ele>1900</ele>
        <time>2016-04-28T09:01:05Z</time>
      </trkpt>
      <trkpt lat="45.93941" lon="6.52492">
        <ele>1904</ele>
        <time>2016-04-28T09:01:15Z</time>
      </trkpt>
      <trkpt lat="45.93929" lon="6.52501">
        <ele>1907</ele>
        <time>2016-04-28T09:01:45Z</time>
      </trkpt>
      <trkpt lat="45.93926" lon="6.52503">
        <ele>1907</ele>
        <time>2016-04-28T09:01:54Z</time>
      </trkpt>
      <trkpt lat="45.93924" lon="6.52504">
        <ele>1908</ele>
        <time>2016-04-28T09:02:02Z</time>
      </trkpt>
      <trkpt lat="45.93922" lon="6.52507">
        <ele>1909</ele>
        <time>2016-04-28T09:02:06Z</time>
      </trkpt>
      <trkpt lat="45.93919" lon="6.52509">
        <ele>1910</ele>
        <time>2016-04-28T09:02:10Z</time>
      </trkpt>
      <trkpt lat="45.93918" lon="6.52513">
        <ele>1911</ele>
        <time>2016-04-28T09:02:16Z</time>
      </trkpt>
      <trkpt lat="45.93916" lon="6.52516">
        <ele>1914</ele>
        <time>2016-04-28T09:02:22Z</time>
      </trkpt>
      <trkpt lat="45.93913" lon="6.52517">
        <ele>1914</ele>
        <time>2016-04-28T09:02:28Z</time>
      </trkpt>
      <trkpt lat="45.93911" lon="6.52521">
        <ele>1914</ele>
        <time>2016-04-28T09:02:33Z</time>
      </trkpt>
      <trkpt lat="45.93897" lon="6.52535">
        <ele>1919</ele>
        <time>2016-04-28T09:02:57Z</time>
      </trkpt>
      <trkpt lat="45.93899" lon="6.52536">
        <ele>1919</ele>
        <time>2016-04-28T09:03:08Z</time>
      </trkpt>
      <trkpt lat="45.93901" lon="6.52539">
        <ele>1921</ele>
        <time>2016-04-28T09:05:06Z</time>
      </trkpt>
      <trkpt lat="45.93905" lon="6.52543">
        <ele>1919</ele>
        <time>2016-04-28T09:08:04Z</time>
      </trkpt>
      <trkpt lat="45.93907" lon="6.52544">
        <ele>1919</ele>
        <time>2016-04-28T09:08:05Z</time>
      </trkpt>
      <trkpt lat="45.93907" lon="6.52542">
        <ele>1922</ele>
        <time>2016-04-28T09:08:34Z</time>
      </trkpt>
      <trkpt lat="45.93907" lon="6.52537">
        <ele>1922</ele>
        <time>2016-04-28T09:08:42Z</time>
      </trkpt>
      <trkpt lat="45.93908" lon="6.5254">
        <ele>1927</ele>
        <time>2016-04-28T09:09:03Z</time>
      </trkpt>
      <trkpt lat="45.9391" lon="6.52548">
        <ele>1926</ele>
        <time>2016-04-28T09:09:13Z</time>
      </trkpt>
      <trkpt lat="45.93909" lon="6.52554">
        <ele>1925</ele>
        <time>2016-04-28T09:09:18Z</time>
      </trkpt>
      <trkpt lat="45.9391" lon="6.52564">
        <ele>1924</ele>
        <time>2016-04-28T09:09:29Z</time>
      </trkpt>
      <trkpt lat="45.93912" lon="6.52566">
        <ele>1923</ele>
        <time>2016-04-28T09:09:34Z</time>
      </trkpt>
      <trkpt lat="45.93911" lon="6.52582">
        <ele>1925</ele>
        <time>2016-04-28T09:09:54Z</time>
      </trkpt>
      <trkpt lat="45.93913" lon="6.52586">
        <ele>1928</ele>
        <time>2016-04-28T09:10:09Z</time>
      </trkpt>
      <trkpt lat="45.93916" lon="6.52589">
        <ele>1929</ele>
        <time>2016-04-28T09:10:16Z</time>
      </trkpt>
      <trkpt lat="45.9392" lon="6.52592">
        <ele>1931</ele>
        <time>2016-04-28T09:10:23Z</time>
      </trkpt>
      <trkpt lat="45.93922" lon="6.52596">
        <ele>1932</ele>
        <time>2016-04-28T09:10:28Z</time>
      </trkpt>
      <trkpt lat="45.93924" lon="6.52596">
        <ele>1933</ele>
        <time>2016-04-28T09:10:30Z</time>
      </trkpt>
      <trkpt lat="45.93927" lon="6.52599">
        <ele>1934</ele>
        <time>2016-04-28T09:10:38Z</time>
      </trkpt>
      <trkpt lat="45.93928" lon="6.52602">
        <ele>1938</ele>
        <time>2016-04-28T09:10:43Z</time>
      </trkpt>
      <trkpt lat="45.93927" lon="6.52605">
        <ele>1938</ele>
        <time>2016-04-28T09:10:46Z</time>
      </trkpt>
      <trkpt lat="45.93919" lon="6.52617">
        <ele>1941</ele>
        <time>2016-04-28T09:11:11Z</time>
      </trkpt>
      <trkpt lat="45.93909" lon="6.52625">
        <ele>1947</ele>
        <time>2016-04-28T09:11:32Z</time>
      </trkpt>
      <trkpt lat="45.93905" lon="6.52626">
        <ele>1951</ele>
        <time>2016-04-28T09:11:48Z</time>
      </trkpt>
      <trkpt lat="45.93903" lon="6.52626">
        <ele>1955</ele>
        <time>2016-04-28T09:12:21Z</time>
      </trkpt>
      <trkpt lat="45.93892" lon="6.52638">
        <ele>1959</ele>
        <time>2016-04-28T09:12:42Z</time>
      </trkpt>
      <trkpt lat="45.93889" lon="6.52642">
        <ele>1960</ele>
        <time>2016-04-28T09:12:57Z</time>
      </trkpt>
      <trkpt lat="45.93886" lon="6.52644">
        <ele>1960</ele>
        <time>2016-04-28T09:12:59Z</time>
      </trkpt>
      <trkpt lat="45.93887" lon="6.52646">
        <ele>1960</ele>
        <time>2016-04-28T09:13:02Z</time>
      </trkpt>
      <trkpt lat="45.93885" lon="6.52649">
        <ele>1960</ele>
        <time>2016-04-28T09:13:06Z</time>
      </trkpt>
      <trkpt lat="45.93882" lon="6.5266">
        <ele>1962</ele>
        <time>2016-04-28T09:13:22Z</time>
      </trkpt>
      <trkpt lat="45.93884" lon="6.52667">
        <ele>1962</ele>
        <time>2016-04-28T09:13:29Z</time>
      </trkpt>
      <trkpt lat="45.93882" lon="6.5267">
        <ele>1961</ele>
        <time>2016-04-28T09:13:31Z</time>
      </trkpt>
      <trkpt lat="45.93884" lon="6.52678">
        <ele>1961</ele>
        <time>2016-04-28T09:13:39Z</time>
      </trkpt>
      <trkpt lat="45.93889" lon="6.52689">
        <ele>1962</ele>
        <time>2016-04-28T09:13:53Z</time>
      </trkpt>
      <trkpt lat="45.9389" lon="6.52694">
        <ele>1964</ele>
        <time>2016-04-28T09:13:58Z</time>
      </trkpt>
      <trkpt lat="45.93888" lon="6.52697">
        <ele>1965</ele>
        <time>2016-04-28T09:14:04Z</time>
      </trkpt>
      <trkpt lat="45.93885" lon="6.52697">
        <ele>1967</ele>
        <time>2016-04-28T09:14:14Z</time>
      </trkpt>
      <trkpt lat="45.93883" lon="6.52697">
        <ele>1973</ele>
        <time>2016-04-28T09:14:19Z</time>
      </trkpt>
      <trkpt lat="45.93881" lon="6.52699">
        <ele>1975</ele>
        <time>2016-04-28T09:14:24Z</time>
      </trkpt>
      <trkpt lat="45.93881" lon="6.52702">
        <ele>1976</ele>
        <time>2016-04-28T09:14:27Z</time>
      </trkpt>
      <trkpt lat="45.93883" lon="6.52711">
        <ele>1977</ele>
        <time>2016-04-28T09:14:37Z</time>
      </trkpt>
      <trkpt lat="45.93881" lon="6.52719">
        <ele>1978</ele>
        <time>2016-04-28T09:14:47Z</time>
      </trkpt>
      <trkpt lat="45.9388" lon="6.52723">
        <ele>1980</ele>
        <time>2016-04-28T09:14:52Z</time>
      </trkpt>
      <trkpt lat="45.93883" lon="6.52729">
        <ele>1982</ele>
        <time>2016-04-28T09:14:59Z</time>
      </trkpt>
      <trkpt lat="45.93883" lon="6.52733">
        <ele>1982</ele>
        <time>2016-04-28T09:15:03Z</time>
      </trkpt>
      <trkpt lat="45.93885" lon="6.52737">
        <ele>1983</ele>
        <time>2016-04-28T09:15:07Z</time>
      </trkpt>
      <trkpt lat="45.93885" lon="6.5274">
        <ele>1983</ele>
        <time>2016-04-28T09:15:14Z</time>
      </trkpt>
      <trkpt lat="45.93887" lon="6.52743">
        <ele>1982</ele>
        <time>2016-04-28T09:15:21Z</time>
      </trkpt>
      <trkpt lat="45.93887" lon="6.5275">
        <ele>1986</ele>
        <time>2016-04-28T09:15:37Z</time>
      </trkpt>
      <trkpt lat="45.93885" lon="6.52752">
        <ele>1988</ele>
        <time>2016-04-28T09:15:45Z</time>
      </trkpt>
      <trkpt lat="45.93883" lon="6.52753">
        <ele>1988</ele>
        <time>2016-04-28T09:15:49Z</time>
      </trkpt>
      <trkpt lat="45.9388" lon="6.52755">
        <ele>1992</ele>
        <time>2016-04-28T09:15:59Z</time>
      </trkpt>
      <trkpt lat="45.93876" lon="6.52757">
        <ele>1994</ele>
        <time>2016-04-28T09:16:11Z</time>
      </trkpt>
      <trkpt lat="45.93875" lon="6.52756">
        <ele>1997</ele>
        <time>2016-04-28T09:16:15Z</time>
      </trkpt>
      <trkpt lat="45.93873" lon="6.52758">
        <ele>1997</ele>
        <time>2016-04-28T09:16:17Z</time>
      </trkpt>
      <trkpt lat="45.93871" lon="6.5276">
        <ele>1998</ele>
        <time>2016-04-28T09:16:22Z</time>
      </trkpt>
      <trkpt lat="45.93868" lon="6.5276">
        <ele>1999</ele>
        <time>2016-04-28T09:16:28Z</time>
      </trkpt>
      <trkpt lat="45.93866" lon="6.52765">
        <ele>2002</ele>
        <time>2016-04-28T09:16:35Z</time>
      </trkpt>
      <trkpt lat="45.93867" lon="6.52771">
        <ele>2002</ele>
        <time>2016-04-28T09:16:45Z</time>
      </trkpt>
      <trkpt lat="45.93869" lon="6.52779">
        <ele>2003</ele>
        <time>2016-04-28T09:16:51Z</time>
      </trkpt>
      <trkpt lat="45.93867" lon="6.52784">
        <ele>2003</ele>
        <time>2016-04-28T09:16:53Z</time>
      </trkpt>
      <trkpt lat="45.93873" lon="6.52807">
        <ele>2003</ele>
        <time>2016-04-28T09:17:31Z</time>
      </trkpt>
      <trkpt lat="45.93873" lon="6.52823">
        <ele>2007</ele>
        <time>2016-04-28T09:17:49Z</time>
      </trkpt>
      <trkpt lat="45.93871" lon="6.52831">
        <ele>2009</ele>
        <time>2016-04-28T09:17:57Z</time>
      </trkpt>
      <trkpt lat="45.93875" lon="6.52839">
        <ele>2009</ele>
        <time>2016-04-28T09:18:06Z</time>
      </trkpt>
      <trkpt lat="45.93878" lon="6.52841">
        <ele>2011</ele>
        <time>2016-04-28T09:18:15Z</time>
      </trkpt>
      <trkpt lat="45.93878" lon="6.52847">
        <ele>2012</ele>
        <time>2016-04-28T09:18:47Z</time>
      </trkpt>
      <trkpt lat="45.93879" lon="6.52851">
        <ele>2012</ele>
        <time>2016-04-28T09:18:50Z</time>
      </trkpt>
      <trkpt lat="45.93885" lon="6.52866">
        <ele>2012</ele>
        <time>2016-04-28T09:19:05Z</time>
      </trkpt>
      <trkpt lat="45.93886" lon="6.52874">
        <ele>2012</ele>
        <time>2016-04-28T09:19:15Z</time>
      </trkpt>
      <trkpt lat="45.93894" lon="6.5288">
        <ele>2013</ele>
        <time>2016-04-28T09:19:20Z</time>
      </trkpt>
      <trkpt lat="45.93898" lon="6.52882">
        <ele>2018</ele>
        <time>2016-04-28T09:19:23Z</time>
      </trkpt>
      <trkpt lat="45.93901" lon="6.52885">
        <ele>2020</ele>
        <time>2016-04-28T09:19:27Z</time>
      </trkpt>
      <trkpt lat="45.93902" lon="6.5289">
        <ele>2023</ele>
        <time>2016-04-28T09:19:34Z</time>
      </trkpt>
      <trkpt lat="45.939" lon="6.52896">
        <ele>2026</ele>
        <time>2016-04-28T09:19:45Z</time>
      </trkpt>
      <trkpt lat="45.93901" lon="6.52901">
        <ele>2027</ele>
        <time>2016-04-28T09:19:52Z</time>
      </trkpt>
      <trkpt lat="45.93906" lon="6.5291">
        <ele>2031</ele>
        <time>2016-04-28T09:20:06Z</time>
      </trkpt>
      <trkpt lat="45.93908" lon="6.52914">
        <ele>2033</ele>
        <time>2016-04-28T09:20:12Z</time>
      </trkpt>
      <trkpt lat="45.93914" lon="6.52916">
        <ele>2036</ele>
        <time>2016-04-28T09:20:17Z</time>
      </trkpt>
      <trkpt lat="45.93915" lon="6.5292">
        <ele>2039</ele>
        <time>2016-04-28T09:21:51Z</time>
      </trkpt>
      <trkpt lat="45.93918" lon="6.52926">
        <ele>2040</ele>
        <time>2016-04-28T09:22:02Z</time>
      </trkpt>
      <trkpt lat="45.93918" lon="6.5293">
        <ele>2040</ele>
        <time>2016-04-28T09:22:14Z</time>
      </trkpt>
      <trkpt lat="45.93918" lon="6.52936">
        <ele>2041</ele>
        <time>2016-04-28T09:22:25Z</time>
      </trkpt>
      <trkpt lat="45.9392" lon="6.52941">
        <ele>2043</ele>
        <time>2016-04-28T09:22:33Z</time>
      </trkpt>
      <trkpt lat="45.93924" lon="6.5295">
        <ele>2044</ele>
        <time>2016-04-28T09:22:58Z</time>
      </trkpt>
      <trkpt lat="45.93926" lon="6.52954">
        <ele>2047</ele>
        <time>2016-04-28T09:23:03Z</time>
      </trkpt>
      <trkpt lat="45.93928" lon="6.52956">
        <ele>2048</ele>
        <time>2016-04-28T09:23:07Z</time>
      </trkpt>
      <trkpt lat="45.9393" lon="6.5296">
        <ele>2049</ele>
        <time>2016-04-28T09:23:16Z</time>
      </trkpt>
      <trkpt lat="45.93928" lon="6.52968">
        <ele>2051</ele>
        <time>2016-04-28T09:23:30Z</time>
      </trkpt>
      <trkpt lat="45.93926" lon="6.52971">
        <ele>2052</ele>
        <time>2016-04-28T09:23:38Z</time>
      </trkpt>
      <trkpt lat="45.9391" lon="6.5298">
        <ele>2057</ele>
        <time>2016-04-28T09:24:06Z</time>
      </trkpt>
      <trkpt lat="45.93905" lon="6.52981">
        <ele>2061</ele>
        <time>2016-04-28T09:24:18Z</time>
      </trkpt>
      <trkpt lat="45.93902" lon="6.52984">
        <ele>2062</ele>
        <time>2016-04-28T09:24:23Z</time>
      </trkpt>
      <trkpt lat="45.93893" lon="6.52988">
        <ele>2065</ele>
        <time>2016-04-28T09:24:33Z</time>
      </trkpt>
      <trkpt lat="45.93891" lon="6.52993">
        <ele>2067</ele>
        <time>2016-04-28T09:24:52Z</time>
      </trkpt>
      <trkpt lat="45.93888" lon="6.52996">
        <ele>2069</ele>
        <time>2016-04-28T09:24:56Z</time>
      </trkpt>
      <trkpt lat="45.93885" lon="6.52998">
        <ele>2071</ele>
        <time>2016-04-28T09:25:02Z</time>
      </trkpt>
      <trkpt lat="45.93883" lon="6.53002">
        <ele>2071</ele>
        <time>2016-04-28T09:25:05Z</time>
      </trkpt>
      <trkpt lat="45.93886" lon="6.53007">
        <ele>2070</ele>
        <time>2016-04-28T09:25:09Z</time>
      </trkpt>
      <trkpt lat="45.93886" lon="6.53033">
        <ele>2070</ele>
        <time>2016-04-28T09:25:42Z</time>
      </trkpt>
      <trkpt lat="45.93886" lon="6.53039">
        <ele>2073</ele>
        <time>2016-04-28T09:25:49Z</time>
      </trkpt>
      <trkpt lat="45.93883" lon="6.53048">
        <ele>2073</ele>
        <time>2016-04-28T09:25:59Z</time>
      </trkpt>
      <trkpt lat="45.93887" lon="6.53055">
        <ele>2074</ele>
        <time>2016-04-28T09:26:11Z</time>
      </trkpt>
      <trkpt lat="45.93888" lon="6.53065">
        <ele>2077</ele>
        <time>2016-04-28T09:26:27Z</time>
      </trkpt>
      <trkpt lat="45.93885" lon="6.5307">
        <ele>2078</ele>
        <time>2016-04-28T09:26:32Z</time>
      </trkpt>
      <trkpt lat="45.93882" lon="6.53069">
        <ele>2081</ele>
        <time>2016-04-28T09:26:49Z</time>
      </trkpt>
      <trkpt lat="45.93879" lon="6.53068">
        <ele>2081</ele>
        <time>2016-04-28T09:26:52Z</time>
      </trkpt>
      <trkpt lat="45.93876" lon="6.53065">
        <ele>2083</ele>
        <time>2016-04-28T09:27:05Z</time>
      </trkpt>
      <trkpt lat="45.93872" lon="6.53066">
        <ele>2085</ele>
        <time>2016-04-28T09:27:09Z</time>
      </trkpt>
      <trkpt lat="45.9386" lon="6.53065">
        <ele>2091</ele>
        <time>2016-04-28T09:27:30Z</time>
      </trkpt>
      <trkpt lat="45.93845" lon="6.5307">
        <ele>2098</ele>
        <time>2016-04-28T09:27:57Z</time>
      </trkpt>
      <trkpt lat="45.93841" lon="6.53072">
        <ele>2101</ele>
        <time>2016-04-28T09:28:08Z</time>
      </trkpt>
      <trkpt lat="45.93839" lon="6.53065">
        <ele>2105</ele>
        <time>2016-04-28T09:28:25Z</time>
      </trkpt>
      <trkpt lat="45.93834" lon="6.53065">
        <ele>2107</ele>
        <time>2016-04-28T09:28:32Z</time>
      </trkpt>
      <trkpt lat="45.93828" lon="6.53066">
        <ele>2107</ele>
        <time>2016-04-28T09:28:35Z</time>
      </trkpt>
      <trkpt lat="45.93821" lon="6.5306">
        <ele>2109</ele>
        <time>2016-04-28T09:29:00Z</time>
      </trkpt>
      <trkpt lat="45.93813" lon="6.53077">
        <ele>2118</ele>
        <time>2016-04-28T09:29:24Z</time>
      </trkpt>
      <trkpt lat="45.9382" lon="6.53099">
        <ele>2119</ele>
        <time>2016-04-28T09:29:46Z</time>
      </trkpt>
      <trkpt lat="45.93819" lon="6.53107">
        <ele>2118</ele>
        <time>2016-04-28T09:29:59Z</time>
      </trkpt>
      <trkpt lat="45.93819" lon="6.53114">
        <ele>2120</ele>
        <time>2016-04-28T09:30:17Z</time>
      </trkpt>
      <trkpt lat="45.93814" lon="6.53112">
        <ele>2120</ele>
        <time>2016-04-28T09:30:22Z</time>
      </trkpt>
      <trkpt lat="45.9381" lon="6.5311">
        <ele>2121</ele>
        <time>2016-04-28T09:30:29Z</time>
      </trkpt>
      <trkpt lat="45.93804" lon="6.53106">
        <ele>2123</ele>
        <time>2016-04-28T09:30:40Z</time>
      </trkpt>
      <trkpt lat="45.938" lon="6.53105">
        <ele>2123</ele>
        <time>2016-04-28T09:30:45Z</time>
      </trkpt>
      <trkpt lat="45.93798" lon="6.53101">
        <ele>2124</ele>
        <time>2016-04-28T09:30:54Z</time>
      </trkpt>
      <trkpt lat="45.93794" lon="6.53097">
        <ele>2127</ele>
        <time>2016-04-28T09:31:12Z</time>
      </trkpt>
      <trkpt lat="45.93788" lon="6.53099">
        <ele>2128</ele>
        <time>2016-04-28T09:31:19Z</time>
      </trkpt>
      <trkpt lat="45.93778" lon="6.53099">
        <ele>2136</ele>
        <time>2016-04-28T09:31:48Z</time>
      </trkpt>
      <trkpt lat="45.93776" lon="6.53103">
        <ele>2137</ele>
        <time>2016-04-28T09:31:55Z</time>
      </trkpt>
      <trkpt lat="45.93777" lon="6.5311">
        <ele>2138</ele>
        <time>2016-04-28T09:32:06Z</time>
      </trkpt>
      <trkpt lat="45.93782" lon="6.53128">
        <ele>2096</ele>
        <time>2016-04-28T09:32:23Z</time>
      </trkpt>
      <trkpt lat="45.93787" lon="6.53144">
        <ele>2134</ele>
        <time>2016-04-28T09:33:01Z</time>
      </trkpt>
      <trkpt lat="45.93789" lon="6.53153">
        <ele>2140</ele>
        <time>2016-04-28T09:33:12Z</time>
      </trkpt>
      <trkpt lat="45.93788" lon="6.53162">
        <ele>2112</ele>
        <time>2016-04-28T09:33:25Z</time>
      </trkpt>
      <trkpt lat="45.93787" lon="6.53167">
        <ele>2114</ele>
        <time>2016-04-28T09:33:31Z</time>
      </trkpt>
      <trkpt lat="45.93787" lon="6.53172">
        <ele>2117</ele>
        <time>2016-04-28T09:33:37Z</time>
      </trkpt>
      <trkpt lat="45.93787" lon="6.53175">
        <ele>2142</ele>
        <time>2016-04-28T09:33:47Z</time>
      </trkpt>
      <trkpt lat="45.93785" lon="6.53178">
        <ele>2144</ele>
        <time>2016-04-28T09:33:54Z</time>
      </trkpt>
      <trkpt lat="45.93782" lon="6.53176">
        <ele>2146</ele>
        <time>2016-04-28T09:33:59Z</time>
      </trkpt>
      <trkpt lat="45.9378" lon="6.5318">
        <ele>2151</ele>
        <time>2016-04-28T09:34:19Z</time>
      </trkpt>
      <trkpt lat="45.9378" lon="6.53185">
        <ele>2151</ele>
        <time>2016-04-28T09:34:23Z</time>
      </trkpt>
      <trkpt lat="45.93779" lon="6.53187">
        <ele>2152</ele>
        <time>2016-04-28T09:34:27Z</time>
      </trkpt>
      <trkpt lat="45.93779" lon="6.53192">
        <ele>2154</ele>
        <time>2016-04-28T09:34:40Z</time>
      </trkpt>
      <trkpt lat="45.93779" lon="6.53194">
        <ele>2154</ele>
        <time>2016-04-28T09:34:43Z</time>
      </trkpt>
      <trkpt lat="45.9378" lon="6.53197">
        <ele>2154</ele>
        <time>2016-04-28T09:34:48Z</time>
      </trkpt>
      <trkpt lat="45.93781" lon="6.53198">
        <ele>2154</ele>
        <time>2016-04-28T09:34:51Z</time>
      </trkpt>
      <trkpt lat="45.93783" lon="6.53206">
        <ele>2154</ele>
        <time>2016-04-28T09:35:01Z</time>
      </trkpt>
      <trkpt lat="45.93781" lon="6.53207">
        <ele>2157</ele>
        <time>2016-04-28T09:35:09Z</time>
      </trkpt>
      <trkpt lat="45.9378" lon="6.53206">
        <ele>2158</ele>
        <time>2016-04-28T09:35:12Z</time>
      </trkpt>
      <trkpt lat="45.93778" lon="6.53207">
        <ele>2159</ele>
        <time>2016-04-28T09:35:20Z</time>
      </trkpt>
      <trkpt lat="45.93776" lon="6.53207">
        <ele>2160</ele>
        <time>2016-04-28T09:35:26Z</time>
      </trkpt>
      <trkpt lat="45.93774" lon="6.5321">
        <ele>2160</ele>
        <time>2016-04-28T09:35:33Z</time>
      </trkpt>
      <trkpt lat="45.93771" lon="6.53208">
        <ele>2161</ele>
        <time>2016-04-28T09:35:37Z</time>
      </trkpt>
      <trkpt lat="45.93768" lon="6.53205">
        <ele>2164</ele>
        <time>2016-04-28T09:35:59Z</time>
      </trkpt>
      <trkpt lat="45.93764" lon="6.53205">
        <ele>2168</ele>
        <time>2016-04-28T09:36:04Z</time>
      </trkpt>
      <trkpt lat="45.93761" lon="6.53206">
        <ele>2169</ele>
        <time>2016-04-28T09:36:12Z</time>
      </trkpt>
      <trkpt lat="45.9376" lon="6.53213">
        <ele>2168</ele>
        <time>2016-04-28T09:36:19Z</time>
      </trkpt>
      <trkpt lat="45.93758" lon="6.53231">
        <ele>2166</ele>
        <time>2016-04-28T09:36:39Z</time>
      </trkpt>
      <trkpt lat="45.9376" lon="6.53238">
        <ele>2166</ele>
        <time>2016-04-28T09:36:49Z</time>
      </trkpt>
      <trkpt lat="45.93761" lon="6.53243">
        <ele>2169</ele>
        <time>2016-04-28T09:37:03Z</time>
      </trkpt>
      <trkpt lat="45.93761" lon="6.53256">
        <ele>2169</ele>
        <time>2016-04-28T09:37:15Z</time>
      </trkpt>
      <trkpt lat="45.93766" lon="6.53266">
        <ele>2172</ele>
        <time>2016-04-28T09:37:36Z</time>
      </trkpt>
      <trkpt lat="45.93766" lon="6.53278">
        <ele>2170</ele>
        <time>2016-04-28T09:37:45Z</time>
      </trkpt>
      <trkpt lat="45.93772" lon="6.53284">
        <ele>2166</ele>
        <time>2016-04-28T09:37:57Z</time>
      </trkpt>
      <trkpt lat="45.93771" lon="6.53289">
        <ele>2165</ele>
        <time>2016-04-28T09:38:02Z</time>
      </trkpt>
      <trkpt lat="45.93771" lon="6.53304">
        <ele>2161</ele>
        <time>2016-04-28T09:38:19Z</time>
      </trkpt>
      <trkpt lat="45.93774" lon="6.53314">
        <ele>2163</ele>
        <time>2016-04-28T09:38:41Z</time>
      </trkpt>
      <trkpt lat="45.93775" lon="6.53338">
        <ele>2166</ele>
        <time>2016-04-28T09:39:10Z</time>
      </trkpt>
      <trkpt lat="45.93777" lon="6.53341">
        <ele>2167</ele>
        <time>2016-04-28T09:39:20Z</time>
      </trkpt>
      <trkpt lat="45.9378" lon="6.53356">
        <ele>2168</ele>
        <time>2016-04-28T09:39:44Z</time>
      </trkpt>
      <trkpt lat="45.93783" lon="6.5336">
        <ele>2170</ele>
        <time>2016-04-28T09:39:51Z</time>
      </trkpt>
      <trkpt lat="45.93786" lon="6.53374">
        <ele>2171</ele>
        <time>2016-04-28T09:40:08Z</time>
      </trkpt>
      <trkpt lat="45.93785" lon="6.53382">
        <ele>2171</ele>
        <time>2016-04-28T09:40:15Z</time>
      </trkpt>
      <trkpt lat="45.93787" lon="6.53385">
        <ele>2172</ele>
        <time>2016-04-28T09:40:29Z</time>
      </trkpt>
      <trkpt lat="45.93787" lon="6.53392">
        <ele>2173</ele>
        <time>2016-04-28T09:40:39Z</time>
      </trkpt>
      <trkpt lat="45.93785" lon="6.53403">
        <ele>2180</ele>
        <time>2016-04-28T09:40:54Z</time>
      </trkpt>
      <trkpt lat="45.93785" lon="6.53406">
        <ele>2186</ele>
        <time>2016-04-28T09:41:00Z</time>
      </trkpt>
      <trkpt lat="45.93783" lon="6.5341">
        <ele>2186</ele>
        <time>2016-04-28T09:41:04Z</time>
      </trkpt>
      <trkpt lat="45.93783" lon="6.53413">
        <ele>2187</ele>
        <time>2016-04-28T09:41:12Z</time>
      </trkpt>
      <trkpt lat="45.93783" lon="6.53418">
        <ele>2190</ele>
        <time>2016-04-28T09:41:21Z</time>
      </trkpt>
      <trkpt lat="45.93783" lon="6.53423">
        <ele>2193</ele>
        <time>2016-04-28T09:41:28Z</time>
      </trkpt>
      <trkpt lat="45.93784" lon="6.53427">
        <ele>2193</ele>
        <time>2016-04-28T09:41:30Z</time>
      </trkpt>
      <trkpt lat="45.93782" lon="6.53436">
        <ele>2193</ele>
        <time>2016-04-28T09:41:44Z</time>
      </trkpt>
      <trkpt lat="45.93782" lon="6.53446">
        <ele>2197</ele>
        <time>2016-04-28T09:41:58Z</time>
      </trkpt>
      <trkpt lat="45.93785" lon="6.53456">
        <ele>2197</ele>
        <time>2016-04-28T09:42:13Z</time>
      </trkpt>
      <trkpt lat="45.93785" lon="6.53464">
        <ele>2199</ele>
        <time>2016-04-28T09:42:28Z</time>
      </trkpt>
      <trkpt lat="45.93786" lon="6.53469">
        <ele>2202</ele>
        <time>2016-04-28T09:42:34Z</time>
      </trkpt>
      <trkpt lat="45.93785" lon="6.53473">
        <ele>2204</ele>
        <time>2016-04-28T09:42:39Z</time>
      </trkpt>
      <trkpt lat="45.93784" lon="6.53485">
        <ele>2203</ele>
        <time>2016-04-28T09:42:53Z</time>
      </trkpt>
      <trkpt lat="45.93784" lon="6.53493">
        <ele>2207</ele>
        <time>2016-04-28T09:43:11Z</time>
      </trkpt>
      <trkpt lat="45.93785" lon="6.53501">
        <ele>2212</ele>
        <time>2016-04-28T09:43:27Z</time>
      </trkpt>
      <trkpt lat="45.93784" lon="6.53504">
        <ele>2212</ele>
        <time>2016-04-28T09:43:31Z</time>
      </trkpt>
      <trkpt lat="45.93783" lon="6.53507">
        <ele>2215</ele>
        <time>2016-04-28T09:43:36Z</time>
      </trkpt>
      <trkpt lat="45.93783" lon="6.53511">
        <ele>2217</ele>
        <time>2016-04-28T09:43:41Z</time>
      </trkpt>
      <trkpt lat="45.93782" lon="6.53517">
        <ele>2219</ele>
        <time>2016-04-28T09:43:50Z</time>
      </trkpt>
      <trkpt lat="45.93782" lon="6.53527">
        <ele>2223</ele>
        <time>2016-04-28T09:44:05Z</time>
      </trkpt>
      <trkpt lat="45.93783" lon="6.53534">
        <ele>2223</ele>
        <time>2016-04-28T09:44:16Z</time>
      </trkpt>
      <trkpt lat="45.93788" lon="6.53538">
        <ele>2220</ele>
        <time>2016-04-28T09:44:24Z</time>
      </trkpt>
      <trkpt lat="45.93786" lon="6.53541">
        <ele>2220</ele>
        <time>2016-04-28T09:44:29Z</time>
      </trkpt>
      <trkpt lat="45.93787" lon="6.53546">
        <ele>2220</ele>
        <time>2016-04-28T09:44:36Z</time>
      </trkpt>
      <trkpt lat="45.93786" lon="6.5355">
        <ele>2220</ele>
        <time>2016-04-28T09:44:42Z</time>
      </trkpt>
      <trkpt lat="45.93789" lon="6.53559">
        <ele>2219</ele>
        <time>2016-04-28T09:45:01Z</time>
      </trkpt>
      <trkpt lat="45.93786" lon="6.53566">
        <ele>2220</ele>
        <time>2016-04-28T09:45:09Z</time>
      </trkpt>
      <trkpt lat="45.93784" lon="6.53572">
        <ele>2222</ele>
        <time>2016-04-28T09:45:18Z</time>
      </trkpt>
      <trkpt lat="45.938" lon="6.53568">
        <ele>2225</ele>
        <time>2016-04-28T09:45:40Z</time>
      </trkpt>
      <trkpt lat="45.938" lon="6.53571">
        <ele>2233</ele>
        <time>2016-04-28T09:46:34Z</time>
      </trkpt>
      <trkpt lat="45.938" lon="6.53574">
        <ele>2233</ele>
        <time>2016-04-28T09:46:38Z</time>
      </trkpt>
      <trkpt lat="45.93801" lon="6.53578">
        <ele>2234</ele>
        <time>2016-04-28T09:46:44Z</time>
      </trkpt>
      <trkpt lat="45.93802" lon="6.53581">
        <ele>2236</ele>
        <time>2016-04-28T09:46:50Z</time>
      </trkpt>
      <trkpt lat="45.93803" lon="6.53586">
        <ele>2239</ele>
        <time>2016-04-28T09:46:59Z</time>
      </trkpt>
      <trkpt lat="45.93801" lon="6.53589">
        <ele>2240</ele>
        <time>2016-04-28T09:47:06Z</time>
      </trkpt>
      <trkpt lat="45.938" lon="6.53593">
        <ele>2242</ele>
        <time>2016-04-28T09:47:13Z</time>
      </trkpt>
      <trkpt lat="45.93802" lon="6.53596">
        <ele>2246</ele>
        <time>2016-04-28T09:47:31Z</time>
      </trkpt>
      <trkpt lat="45.93804" lon="6.53597">
        <ele>2246</ele>
        <time>2016-04-28T09:47:35Z</time>
      </trkpt>
      <trkpt lat="45.93808" lon="6.53596">
        <ele>2244</ele>
        <time>2016-04-28T09:47:40Z</time>
      </trkpt>
      <trkpt lat="45.93817" lon="6.53591">
        <ele>2247</ele>
        <time>2016-04-28T09:48:04Z</time>
      </trkpt>
      <trkpt lat="45.93824" lon="6.53587">
        <ele>2248</ele>
        <time>2016-04-28T09:48:18Z</time>
      </trkpt>
      <trkpt lat="45.93822" lon="6.53589">
        <ele>2251</ele>
        <time>2016-04-28T09:48:28Z</time>
      </trkpt>
      <trkpt lat="45.93819" lon="6.53593">
        <ele>2253</ele>
        <time>2016-04-28T09:48:51Z</time>
      </trkpt>
      <trkpt lat="45.93818" lon="6.53596">
        <ele>2257</ele>
        <time>2016-04-28T09:48:59Z</time>
      </trkpt>
      <trkpt lat="45.93819" lon="6.53603">
        <ele>2259</ele>
        <time>2016-04-28T09:49:14Z</time>
      </trkpt>
      <trkpt lat="45.93815" lon="6.53608">
        <ele>2259</ele>
        <time>2016-04-28T09:49:20Z</time>
      </trkpt>
      <trkpt lat="45.93815" lon="6.53618">
        <ele>2261</ele>
        <time>2016-04-28T09:49:34Z</time>
      </trkpt>
      <trkpt lat="45.93814" lon="6.53621">
        <ele>2264</ele>
        <time>2016-04-28T09:49:38Z</time>
      </trkpt>
      <trkpt lat="45.93812" lon="6.53627">
        <ele>2265</ele>
        <time>2016-04-28T09:49:44Z</time>
      </trkpt>
      <trkpt lat="45.93813" lon="6.53629">
        <ele>2264</ele>
        <time>2016-04-28T09:49:48Z</time>
      </trkpt>
      <trkpt lat="45.93813" lon="6.53632">
        <ele>2264</ele>
        <time>2016-04-28T09:49:53Z</time>
      </trkpt>
      <trkpt lat="45.9381" lon="6.53635">
        <ele>2264</ele>
        <time>2016-04-28T09:49:58Z</time>
      </trkpt>
      <trkpt lat="45.93809" lon="6.5364">
        <ele>2265</ele>
        <time>2016-04-28T09:50:04Z</time>
      </trkpt>
      <trkpt lat="45.93812" lon="6.53643">
        <ele>2266</ele>
        <time>2016-04-28T09:50:21Z</time>
      </trkpt>
      <trkpt lat="45.93815" lon="6.53643">
        <ele>2266</ele>
        <time>2016-04-28T09:50:24Z</time>
      </trkpt>
      <trkpt lat="45.93818" lon="6.53641">
        <ele>2265</ele>
        <time>2016-04-28T09:50:29Z</time>
      </trkpt>
      <trkpt lat="45.93824" lon="6.53643">
        <ele>2265</ele>
        <time>2016-04-28T09:50:36Z</time>
      </trkpt>
      <trkpt lat="45.93827" lon="6.53643">
        <ele>2270</ele>
        <time>2016-04-28T09:50:54Z</time>
      </trkpt>
      <trkpt lat="45.93831" lon="6.5364">
        <ele>2271</ele>
        <time>2016-04-28T09:50:59Z</time>
      </trkpt>
      <trkpt lat="45.93832" lon="6.53641">
        <ele>2271</ele>
        <time>2016-04-28T09:51:04Z</time>
      </trkpt>
      <trkpt lat="45.93841" lon="6.53637">
        <ele>2272</ele>
        <time>2016-04-28T09:51:19Z</time>
      </trkpt>
      <trkpt lat="45.93843" lon="6.53634">
        <ele>2274</ele>
        <time>2016-04-28T09:51:22Z</time>
      </trkpt>
      <trkpt lat="45.93847" lon="6.53626">
        <ele>2275</ele>
        <time>2016-04-28T09:51:47Z</time>
      </trkpt>
      <trkpt lat="45.93846" lon="6.53629">
        <ele>2279</ele>
        <time>2016-04-28T09:52:04Z</time>
      </trkpt>
      <trkpt lat="45.93847" lon="6.53634">
        <ele>2281</ele>
        <time>2016-04-28T09:52:11Z</time>
      </trkpt>
      <trkpt lat="45.93846" lon="6.53638">
        <ele>2281</ele>
        <time>2016-04-28T09:52:16Z</time>
      </trkpt>
      <trkpt lat="45.93847" lon="6.5364">
        <ele>2282</ele>
        <time>2016-04-28T09:52:21Z</time>
      </trkpt>
      <trkpt lat="45.93845" lon="6.53644">
        <ele>2287</ele>
        <time>2016-04-28T09:52:25Z</time>
      </trkpt>
      <trkpt lat="45.93844" lon="6.53662">
        <ele>2293</ele>
        <time>2016-04-28T09:52:53Z</time>
      </trkpt>
      <trkpt lat="45.93842" lon="6.53664">
        <ele>2294</ele>
        <time>2016-04-28T09:52:57Z</time>
      </trkpt>
      <trkpt lat="45.93841" lon="6.53668">
        <ele>2297</ele>
        <time>2016-04-28T09:53:01Z</time>
      </trkpt>
      <trkpt lat="45.93839" lon="6.53678">
        <ele>2298</ele>
        <time>2016-04-28T09:53:11Z</time>
      </trkpt>
      <trkpt lat="45.93843" lon="6.53678">
        <ele>2299</ele>
        <time>2016-04-28T09:53:32Z</time>
      </trkpt>
      <trkpt lat="45.93846" lon="6.53676">
        <ele>2304</ele>
        <time>2016-04-28T09:53:37Z</time>
      </trkpt>
      <trkpt lat="45.93847" lon="6.53674">
        <ele>2307</ele>
        <time>2016-04-28T09:53:39Z</time>
      </trkpt>
      <trkpt lat="45.93849" lon="6.53674">
        <ele>2309</ele>
        <time>2016-04-28T09:53:43Z</time>
      </trkpt>
      <trkpt lat="45.93852" lon="6.53674">
        <ele>2310</ele>
        <time>2016-04-28T09:53:48Z</time>
      </trkpt>
      <trkpt lat="45.93855" lon="6.53672">
        <ele>2313</ele>
        <time>2016-04-28T09:53:54Z</time>
      </trkpt>
      <trkpt lat="45.93858" lon="6.53668">
        <ele>2315</ele>
        <time>2016-04-28T09:54:01Z</time>
      </trkpt>
      <trkpt lat="45.93862" lon="6.53663">
        <ele>2318</ele>
        <time>2016-04-28T09:54:15Z</time>
      </trkpt>
      <trkpt lat="45.93869" lon="6.53645">
        <ele>2319</ele>
        <time>2016-04-28T09:54:47Z</time>
      </trkpt>
      <trkpt lat="45.93871" lon="6.53644">
        <ele>2319</ele>
        <time>2016-04-28T09:54:50Z</time>
      </trkpt>
      <trkpt lat="45.93872" lon="6.53646">
        <ele>2319</ele>
        <time>2016-04-28T09:54:55Z</time>
      </trkpt>
      <trkpt lat="45.93884" lon="6.53648">
        <ele>2320</ele>
        <time>2016-04-28T09:55:23Z</time>
      </trkpt>
      <trkpt lat="45.93898" lon="6.53656">
        <ele>2320</ele>
        <time>2016-04-28T09:55:48Z</time>
      </trkpt>
      <trkpt lat="45.939" lon="6.53655">
        <ele>2320</ele>
        <time>2016-04-28T09:55:50Z</time>
      </trkpt>
      <trkpt lat="45.93907" lon="6.53657">
        <ele>2322</ele>
        <time>2016-04-28T09:56:01Z</time>
      </trkpt>
      <trkpt lat="45.93912" lon="6.53656">
        <ele>2324</ele>
        <time>2016-04-28T09:56:09Z</time>
      </trkpt>
      <trkpt lat="45.93914" lon="6.53657">
        <ele>2325</ele>
        <time>2016-04-28T09:56:12Z</time>
      </trkpt>
      <trkpt lat="45.93922" lon="6.53659">
        <ele>2328</ele>
        <time>2016-04-28T09:56:33Z</time>
      </trkpt>
      <trkpt lat="45.93926" lon="6.53665">
        <ele>2331</ele>
        <time>2016-04-28T09:56:51Z</time>
      </trkpt>
      <trkpt lat="45.93928" lon="6.53666">
        <ele>2331</ele>
        <time>2016-04-28T09:56:56Z</time>
      </trkpt>
      <trkpt lat="45.9393" lon="6.5367">
        <ele>2331</ele>
        <time>2016-04-28T09:57:02Z</time>
      </trkpt>
      <trkpt lat="45.93934" lon="6.5367">
        <ele>2331</ele>
        <time>2016-04-28T09:57:10Z</time>
      </trkpt>
      <trkpt lat="45.9394" lon="6.53675">
        <ele>2333</ele>
        <time>2016-04-28T09:57:20Z</time>
      </trkpt>
      <trkpt lat="45.93948" lon="6.53674">
        <ele>2334</ele>
        <time>2016-04-28T09:57:40Z</time>
      </trkpt>
      <trkpt lat="45.93952" lon="6.53682">
        <ele>2334</ele>
        <time>2016-04-28T09:57:53Z</time>
      </trkpt>
      <trkpt lat="45.9396" lon="6.53686">
        <ele>2336</ele>
        <time>2016-04-28T09:58:20Z</time>
      </trkpt>
      <trkpt lat="45.93973" lon="6.53706">
        <ele>2341</ele>
        <time>2016-04-28T09:58:50Z</time>
      </trkpt>
      <trkpt lat="45.93977" lon="6.53714">
        <ele>2342</ele>
        <time>2016-04-28T09:59:02Z</time>
      </trkpt>
      <trkpt lat="45.93981" lon="6.53715">
        <ele>2342</ele>
        <time>2016-04-28T09:59:07Z</time>
      </trkpt>
      <trkpt lat="45.93981" lon="6.53744">
        <ele>2347</ele>
        <time>2016-04-28T09:59:38Z</time>
      </trkpt>
      <trkpt lat="45.93981" lon="6.53765">
        <ele>2348</ele>
        <time>2016-04-28T10:00:00Z</time>
      </trkpt>
      <trkpt lat="45.93983" lon="6.53768">
        <ele>2348</ele>
        <time>2016-04-28T10:00:04Z</time>
      </trkpt>
      <trkpt lat="45.93983" lon="6.5377">
        <ele>2349</ele>
        <time>2016-04-28T10:00:06Z</time>
      </trkpt>
      <trkpt lat="45.93984" lon="6.53771">
        <ele>2349</ele>
        <time>2016-04-28T10:00:08Z</time>
      </trkpt>
      <trkpt lat="45.93985" lon="6.53777">
        <ele>2350</ele>
        <time>2016-04-28T10:00:13Z</time>
      </trkpt>
      <trkpt lat="45.93991" lon="6.53787">
        <ele>2353</ele>
        <time>2016-04-28T10:00:27Z</time>
      </trkpt>
      <trkpt lat="45.93997" lon="6.5379">
        <ele>2352</ele>
        <time>2016-04-28T10:00:34Z</time>
      </trkpt>
      <trkpt lat="45.93998" lon="6.53792">
        <ele>2352</ele>
        <time>2016-04-28T10:00:36Z</time>
      </trkpt>
      <trkpt lat="45.94016" lon="6.53798">
        <ele>2350</ele>
        <time>2016-04-28T10:01:02Z</time>
      </trkpt>
      <trkpt lat="45.94017" lon="6.53801">
        <ele>2351</ele>
        <time>2016-04-28T10:01:07Z</time>
      </trkpt>
      <trkpt lat="45.94022" lon="6.53802">
        <ele>2352</ele>
        <time>2016-04-28T10:01:13Z</time>
      </trkpt>
      <trkpt lat="45.94035" lon="6.53819">
        <ele>2355</ele>
        <time>2016-04-28T10:01:41Z</time>
      </trkpt>
      <trkpt lat="45.94035" lon="6.53821">
        <ele>2355</ele>
        <time>2016-04-28T10:01:43Z</time>
      </trkpt>
      <trkpt lat="45.94037" lon="6.53822">
        <ele>2356</ele>
        <time>2016-04-28T10:01:46Z</time>
      </trkpt>
      <trkpt lat="45.94044" lon="6.53827">
        <ele>2354</ele>
        <time>2016-04-28T10:02:00Z</time>
      </trkpt>
      <trkpt lat="45.94043" lon="6.5383">
        <ele>2355</ele>
        <time>2016-04-28T10:02:02Z</time>
      </trkpt>
      <trkpt lat="45.94045" lon="6.53832">
        <ele>2356</ele>
        <time>2016-04-28T10:02:07Z</time>
      </trkpt>
      <trkpt lat="45.94049" lon="6.53833">
        <ele>2361</ele>
        <time>2016-04-28T10:02:14Z</time>
      </trkpt>
      <trkpt lat="45.94051" lon="6.5383">
        <ele>2363</ele>
        <time>2016-04-28T10:02:21Z</time>
      </trkpt>
      <trkpt lat="45.9406" lon="6.53826">
        <ele>2365</ele>
        <time>2016-04-28T10:02:40Z</time>
      </trkpt>
      <trkpt lat="45.94061" lon="6.53824">
        <ele>2365</ele>
        <time>2016-04-28T10:02:47Z</time>
      </trkpt>
      <trkpt lat="45.94063" lon="6.53826">
        <ele>2368</ele>
        <time>2016-04-28T10:03:02Z</time>
      </trkpt>
      <trkpt lat="45.94062" lon="6.53833">
        <ele>2373</ele>
        <time>2016-04-28T10:03:15Z</time>
      </trkpt>
      <trkpt lat="45.94064" lon="6.53837">
        <ele>2373</ele>
        <time>2016-04-28T10:03:23Z</time>
      </trkpt>
      <trkpt lat="45.94066" lon="6.53838">
        <ele>2371</ele>
        <time>2016-04-28T10:03:29Z</time>
      </trkpt>
      <trkpt lat="45.94067" lon="6.5384">
        <ele>2372</ele>
        <time>2016-04-28T10:03:32Z</time>
      </trkpt>
      <trkpt lat="45.94068" lon="6.53844">
        <ele>2374</ele>
        <time>2016-04-28T10:03:50Z</time>
      </trkpt>
      <trkpt lat="45.94073" lon="6.53838">
        <ele>2376</ele>
        <time>2016-04-28T10:04:03Z</time>
      </trkpt>
      <trkpt lat="45.94074" lon="6.53836">
        <ele>2376</ele>
        <time>2016-04-28T10:04:08Z</time>
      </trkpt>
      <trkpt lat="45.94081" lon="6.5383">
        <ele>2380</ele>
        <time>2016-04-28T10:04:27Z</time>
      </trkpt>
      <trkpt lat="45.94083" lon="6.53827">
        <ele>2382</ele>
        <time>2016-04-28T10:04:35Z</time>
      </trkpt>
      <trkpt lat="45.94085" lon="6.53827">
        <ele>2382</ele>
        <time>2016-04-28T10:04:40Z</time>
      </trkpt>
      <trkpt lat="45.94089" lon="6.53823">
        <ele>2385</ele>
        <time>2016-04-28T10:04:54Z</time>
      </trkpt>
      <trkpt lat="45.94091" lon="6.53823">
        <ele>2385</ele>
        <time>2016-04-28T10:05:00Z</time>
      </trkpt>
      <trkpt lat="45.94091" lon="6.53825">
        <ele>2386</ele>
        <time>2016-04-28T10:05:06Z</time>
      </trkpt>
      <trkpt lat="45.94092" lon="6.53827">
        <ele>2386</ele>
        <time>2016-04-28T10:05:13Z</time>
      </trkpt>
      <trkpt lat="45.94094" lon="6.53831">
        <ele>2386</ele>
        <time>2016-04-28T10:05:28Z</time>
      </trkpt>
      <trkpt lat="45.94094" lon="6.53833">
        <ele>2386</ele>
        <time>2016-04-28T10:05:30Z</time>
      </trkpt>
      <trkpt lat="45.94098" lon="6.53842">
        <ele>2387</ele>
        <time>2016-04-28T10:06:39Z</time>
      </trkpt>
      <trkpt lat="45.94099" lon="6.53844">
        <ele>2387</ele>
        <time>2016-04-28T10:06:41Z</time>
      </trkpt>
      <trkpt lat="45.94099" lon="6.53846">
        <ele>2388</ele>
        <time>2016-04-28T10:06:43Z</time>
      </trkpt>
      <trkpt lat="45.94098" lon="6.53851">
        <ele>2390</ele>
        <time>2016-04-28T10:06:54Z</time>
      </trkpt>
      <trkpt lat="45.94098" lon="6.53856">
        <ele>2391</ele>
        <time>2016-04-28T10:06:59Z</time>
      </trkpt>
      <trkpt lat="45.94097" lon="6.53857">
        <ele>2392</ele>
        <time>2016-04-28T10:07:06Z</time>
      </trkpt>
      <trkpt lat="45.94099" lon="6.5386">
        <ele>2392</ele>
        <time>2016-04-28T10:07:09Z</time>
      </trkpt>
      <trkpt lat="45.94097" lon="6.53863">
        <ele>2395</ele>
        <time>2016-04-28T10:07:14Z</time>
      </trkpt>
      <trkpt lat="45.94097" lon="6.53865">
        <ele>2396</ele>
        <time>2016-04-28T10:07:18Z</time>
      </trkpt>
      <trkpt lat="45.94101" lon="6.53891">
        <ele>2398</ele>
        <time>2016-04-28T10:07:46Z</time>
      </trkpt>
      <trkpt lat="45.94103" lon="6.53891">
        <ele>2398</ele>
        <time>2016-04-28T10:07:50Z</time>
      </trkpt>
      <trkpt lat="45.94107" lon="6.5391">
        <ele>2400</ele>
        <time>2016-04-28T10:08:26Z</time>
      </trkpt>
    </trkseg>
  </trk>
</gpx>